Time;durP1;ratioP1;P1;durP2;ratioP2;P2;SDS_P1;SDS_P2;PMS_P1;PMS_P2;Temp;Humidity;BMP_temperature;BMP_pressure;BME280_temperature;BME280_humidity;BME280_pressure;Samples;Min_cycle;Max_cycle;Signal;HPM_P1;HPM_P2
2021/12/11 00:01:24;;;;;;;5.32;2.17;;;;;;;0.42;100.00;94148.53;4996226;28;20046;-77
2021/12/11 00:04:00;;;;;;;3.40;1.60;;;;;;;0.52;100.00;94146.09;4986357;28;20038;-77
2021/12/11 00:06:32;;;;;;;6.25;1.85;;;;;;;0.35;100.00;94153.09;4990117;28;20507;-77
2021/12/11 00:09:07;;;;;;;9.75;1.73;;;;;;;0.33;100.00;94155.94;5005797;28;20080;-76
2021/12/11 00:11:37;;;;;;;4.10;1.98;;;;;;;0.42;100.00;94164.06;4983456;28;20083;-77
2021/12/11 00:14:06;;;;;;;10.38;1.88;;;;;;;0.42;100.00;94161.47;5005461;28;20042;-75
2021/12/11 00:16:35;;;;;;;4.20;1.85;;;;;;;0.44;100.00;94167.19;5001171;28;20050;-77
2021/12/11 00:19:06;;;;;;;4.13;1.83;;;;;;;0.52;100.00;94169.38;4982208;28;20034;-75
2021/12/11 00:21:31;;;;;;;6.43;2.03;;;;;;;0.46;100.00;94169.53;4992556;28;20042;-76
2021/12/11 00:24:09;;;;;;;2.42;1.70;;;;;;;0.46;100.00;94175.53;4991393;28;20045;-76
2021/12/11 00:26:50;;;;;;;6.55;1.98;;;;;;;0.45;100.00;94186.13;5009353;28;20053;-76
2021/12/11 00:29:21;;;;;;;3.08;1.63;;;;;;;0.45;100.00;94184.31;5009015;28;20121;-77
2021/12/11 00:31:51;;;;;;;4.93;1.85;;;;;;;0.44;100.00;94192.31;4986349;28;20038;-77
2021/12/11 00:34:20;;;;;;;2.88;1.70;;;;;;;0.48;100.00;94194.19;4985003;28;20073;-77
2021/12/11 00:36:56;;;;;;;2.33;1.65;;;;;;;0.39;100.00;94200.78;4986210;28;20096;-77
2021/12/11 00:39:22;;;;;;;2.85;1.63;;;;;;;0.32;100.00;94200.16;5010013;28;20096;-77
2021/12/11 00:41:55;;;;;;;5.32;1.77;;;;;;;0.45;100.00;94210.19;5009798;28;20073;-77
2021/12/11 00:44:37;;;;;;;4.07;1.60;;;;;;;0.46;100.00;94211.75;4992868;28;20042;-77
2021/12/11 00:47:28;;;;;;;2.30;1.52;;;;;;;0.47;100.00;94221.06;4983834;28;20095;-77
2021/12/11 00:50:03;;;;;;;3.53;1.70;;;;;;;0.51;100.00;94224.75;5012480;28;20045;-77
2021/12/11 00:52:33;;;;;;;5.38;2.00;;;;;;;0.50;100.00;94232.75;5009939;28;20491;-77
2021/12/11 00:55:04;;;;;;;6.45;1.85;;;;;;;0.54;100.00;94233.09;5000999;28;20046;-78
2021/12/11 00:57:30;;;;;;;2.13;1.45;;;;;;;0.51;100.00;94237.69;4973574;28;20042;-76
2021/12/11 01:00:12;;;;;;;2.60;1.60;;;;;;;0.50;100.00;94243.91;4997423;28;20057;-75
2021/12/11 01:02:39;;;;;;;1.88;1.50;;;;;;;0.47;100.00;94243.59;4983390;28;20053;-77
2021/12/11 01:05:08;;;;;;;1.50;1.02;;;;;;;0.50;100.00;94253.47;4990220;28;20038;-77
2021/12/11 01:07:34;;;;;;;4.72;1.23;;;;;;;0.58;100.00;94265.25;4996418;28;20042;-77
2021/12/11 01:10:17;;;;;;;3.08;1.35;;;;;;;0.59;100.00;94259.84;5008943;28;20049;-77
2021/12/11 01:12:51;;;;;;;2.10;1.48;;;;;;;0.52;100.00;94278.09;5009188;28;20049;-77
2021/12/11 01:15:21;;;;;;;;;;;;;;;0.52;100.00;94283.28;4992382;28;20045;-78
2021/12/11 01:18:21;;;;;;;2.40;1.25;;;;;;;0.49;100.00;94283.00;5007871;28;19925;-77
2021/12/11 01:20:59;;;;;;;3.28;1.42;;;;;;;0.49;100.00;94283.75;5008743;28;20684;-78
2021/12/11 01:26:03;;;;;;;4.32;1.50;;;;;;;0.62;100.00;94287.06;4992138;28;20042;-77
2021/12/11 01:28:30;;;;;;;3.42;1.20;;;;;;;0.57;100.00;94294.75;5005235;28;20045;-77
2021/12/11 01:30:57;;;;;;;3.70;1.35;;;;;;;0.58;100.00;94291.91;5008800;28;20129;-77
2021/12/11 01:33:23;;;;;;;3.08;1.30;;;;;;;0.58;100.00;94301.50;4985488;28;20053;-78
2021/12/11 01:35:49;;;;;;;1.85;1.45;;;;;;;0.52;100.00;94298.03;4996544;28;20042;-77
2021/12/11 01:38:26;;;;;;;2.47;1.52;;;;;;;0.61;100.00;94306.19;5003129;28;20050;-77
2021/12/11 01:40:57;;;;;;;2.88;1.48;;;;;;;0.59;100.00;94308.22;5008522;28;20049;-78
2021/12/11 01:43:27;;;;;;;1.50;1.10;;;;;;;0.59;100.00;94321.16;5009265;28;20062;-78
2021/12/11 01:45:56;;;;;;;1.25;1.15;;;;;;;0.51;100.00;94323.13;4986764;28;20046;-77
2021/12/11 01:48:28;;;;;;;1.45;1.25;;;;;;;0.50;100.00;94321.56;5005651;28;20401;-78
2021/12/11 01:51:06;;;;;;;1.83;1.33;;;;;;;0.57;100.00;94326.59;5007739;28;20125;-77
2021/12/11 01:53:40;;;;;;;3.58;1.55;;;;;;;0.52;100.00;94335.06;4999675;28;20078;-78
2021/12/11 01:56:15;;;;;;;2.50;1.50;;;;;;;0.47;100.00;94332.38;5009027;28;20046;-78
2021/12/11 01:58:56;;;;;;;1.65;1.20;;;;;;;0.48;100.00;94328.78;5008971;28;20918;-78
2021/12/11 02:01:45;;;;;;;2.33;1.38;;;;;;;0.63;100.00;94330.03;5010760;28;20044;-78
2021/12/11 02:04:14;;;;;;;1.30;1.10;;;;;;;0.56;100.00;94334.59;4996647;28;20141;-78
2021/12/11 02:06:43;;;;;;;1.30;0.95;;;;;;;0.57;100.00;94336.94;5008346;28;20042;-77
2021/12/11 02:09:20;;;;;;;3.72;1.30;;;;;;;0.61;100.00;94342.44;5008072;28;20057;-77
2021/12/11 02:11:50;;;;;;;1.92;1.40;;;;;;;0.63;100.00;94340.41;5000487;28;20041;-77
2021/12/11 02:14:27;;;;;;;2.67;1.38;;;;;;;0.54;100.00;94336.63;5008432;28;20046;-77
2021/12/11 02:16:53;;;;;;;1.50;1.13;;;;;;;0.63;100.00;94350.75;5006946;28;20759;-77
2021/12/11 02:19:31;;;;;;;2.85;1.40;;;;;;;0.66;100.00;94350.28;5008027;28;20195;-77
2021/12/11 02:22:00;;;;;;;3.80;1.70;;;;;;;0.51;100.00;94354.19;5002006;28;20046;-75
2021/12/11 02:24:36;;;;;;;2.08;1.25;;;;;;;0.61;100.00;94348.41;5008045;28;20045;-77
2021/12/11 02:27:13;;;;;;;4.45;1.33;;;;;;;0.60;100.00;94351.22;4999647;28;20038;-77
2021/12/11 02:29:49;;;;;;;3.35;1.52;;;;;;;0.48;100.00;94349.47;5001881;28;20076;-76
2021/12/11 02:32:36;;;;;;;2.08;1.27;;;;;;;0.59;100.00;94345.28;5008898;28;20045;-76
2021/12/11 02:35:10;;;;;;;3.75;1.60;;;;;;;0.55;100.00;94353.72;5007206;28;20037;-76
2021/12/11 02:37:47;;;;;;;2.72;1.23;;;;;;;0.60;100.00;94356.41;4989401;28;20097;-78
2021/12/11 02:40:27;;;;;;;4.55;1.63;;;;;;;0.62;100.00;94359.56;5007494;28;20049;-77
2021/12/11 02:43:00;;;;;;;2.63;1.60;;;;;;;0.55;100.00;94358.91;4984004;28;20048;-76
2021/12/11 02:45:34;;;;;;;2.97;1.45;;;;;;;0.56;100.00;94365.66;4992024;28;20043;-77
2021/12/11 02:48:32;;;;;;;2.28;1.33;;;;;;;0.55;100.00;94374.44;5003300;28;20518;-74
2021/12/11 02:50:57;;;;;;;3.85;1.90;;;;;;;0.49;100.00;94381.34;4994931;28;20087;-75
2021/12/11 02:53:35;;;;;;;4.38;1.55;;;;;;;0.50;100.00;94393.25;5005570;28;20070;-76
2021/12/11 02:56:25;;;;;;;1.25;1.10;;;;;;;0.52;100.00;94397.19;4988936;28;20042;-76
2021/12/11 02:58:56;;;;;;;4.00;1.55;;;;;;;0.48;100.00;94396.09;5000974;28;20492;-77
2021/12/11 03:01:35;;;;;;;2.20;1.60;;;;;;;0.51;100.00;94405.97;5007615;28;20046;-76
2021/12/11 03:04:13;;;;;;;2.15;1.40;;;;;;;0.57;100.00;94409.44;5007466;28;20041;-77
2021/12/11 03:06:43;;;;;;;2.53;1.50;;;;;;;0.50;100.00;94407.00;4988427;28;20101;-77
2021/12/11 03:09:11;;;;;;;4.53;1.60;;;;;;;0.58;100.00;94412.81;5006445;28;20053;-77
2021/12/11 03:11:36;;;;;;;2.80;1.48;;;;;;;0.64;100.00;94419.66;4990557;28;20038;-77
2021/12/11 03:14:12;;;;;;;2.08;1.33;;;;;;;0.66;100.00;94417.59;5007302;28;20046;-77
2021/12/11 03:16:40;;;;;;;2.58;1.30;;;;;;;0.60;100.00;94418.53;5007496;28;20466;-76
2021/12/11 03:19:15;;;;;;;3.58;1.60;;;;;;;0.63;100.00;94420.66;5007591;28;20432;-77
2021/12/11 03:21:42;;;;;;;1.73;1.05;;;;;;;0.65;100.00;94427.19;4978252;28;20046;-77
2021/12/11 03:24:09;;;;;;;1.60;1.23;;;;;;;0.65;100.00;94436.75;5006060;28;20104;-77
2021/12/11 03:26:36;;;;;;;2.25;1.30;;;;;;;0.65;100.00;94437.53;4988372;28;20050;-77
2021/12/11 03:29:03;;;;;;;3.30;1.50;;;;;;;0.60;100.00;94429.66;4988696;28;20050;-76
2021/12/11 03:31:28;;;;;;;4.22;1.65;;;;;;;0.63;100.00;94438.78;4978715;28;20045;-77
2021/12/11 03:33:57;;;;;;;3.75;1.73;;;;;;;0.60;100.00;94434.84;5006897;28;20061;-77
2021/12/11 03:36:26;;;;;;;7.07;1.73;;;;;;;0.56;100.00;94448.50;5007708;28;20046;-77
2021/12/11 03:38:57;;;;;;;3.00;1.65;;;;;;;0.54;100.00;94455.72;4990016;28;20124;-77
2021/12/11 03:41:26;;;;;;;2.35;1.60;;;;;;;0.58;100.00;94456.84;5005358;28;20049;-77
2021/12/11 03:43:53;;;;;;;5.90;1.80;;;;;;;0.56;100.00;94458.84;5007311;28;20042;-77
2021/12/11 03:46:19;;;;;;;3.75;1.73;;;;;;;0.51;100.00;94469.91;4992782;28;20564;-77
2021/12/11 03:48:52;;;;;;;4.90;2.00;;;;;;;0.41;100.00;94473.09;4989247;28;20050;-77
2021/12/11 03:51:22;;;;;;;2.17;1.50;;;;;;;0.36;100.00;94474.81;4988629;28;20416;-77
2021/12/11 03:53:48;;;;;;;1.65;1.38;;;;;;;0.47;100.00;94466.22;5005961;28;20503;-78
2021/12/11 03:56:16;;;;;;;3.42;2.00;;;;;;;0.53;100.00;94478.22;5006616;28;20077;-77
2021/12/11 03:58:49;;;;;;;2.15;1.52;;;;;;;0.51;100.00;94488.81;4993676;28;20049;-77
2021/12/11 04:01:31;;;;;;;3.28;1.80;;;;;;;0.39;100.00;94480.31;4992929;28;20050;-77
2021/12/11 04:04:05;;;;;;;3.05;1.70;;;;;;;0.48;100.00;94483.31;5001219;28;20104;-77
2021/12/11 04:06:33;;;;;;;2.47;1.48;;;;;;;0.42;100.00;94485.03;5008148;28;20056;-78
2021/12/11 04:09:01;;;;;;;4.00;1.73;;;;;;;0.58;100.00;94487.91;4994674;28;20050;-77
2021/12/11 04:11:30;;;;;;;2.38;1.50;;;;;;;0.52;100.00;94490.38;4993408;28;20797;-77
2021/12/11 04:14:02;;;;;;;2.97;1.60;;;;;;;0.51;100.00;94494.00;4988254;28;20038;-77
2021/12/11 04:16:30;;;;;;;2.75;1.80;;;;;;;0.44;100.00;94503.69;5009584;28;20038;-77
2021/12/11 04:18:57;;;;;;;6.85;1.67;;;;;;;0.42;100.00;94510.91;4993144;28;20041;-77
2021/12/11 04:21:22;;;;;;;3.53;1.80;;;;;;;0.38;100.00;94511.59;4993604;28;20046;-77
2021/12/11 04:23:49;;;;;;;5.05;1.90;;;;;;;0.33;100.00;94517.44;5009434;28;20045;-78
2021/12/11 04:26:14;;;;;;;4.75;1.88;;;;;;;0.30;100.00;94517.91;4997236;28;20065;-77
2021/12/11 04:28:41;;;;;;;2.85;1.80;;;;;;;0.30;100.00;94523.09;5006316;28;20096;-77
2021/12/11 04:31:12;;;;;;;3.55;2.05;;;;;;;0.16;100.00;94533.69;5010925;28;20038;-77
2021/12/11 04:33:41;;;;;;;6.80;2.20;;;;;;;0.16;100.00;94523.34;5004555;28;20093;-77
2021/12/11 04:36:11;;;;;;;3.15;1.58;;;;;;;0.10;100.00;94529.44;4992804;28;20049;-77
2021/12/11 04:38:37;;;;;;;5.22;2.30;;;;;;;0.06;100.00;94528.31;4988689;28;20038;-77
2021/12/11 04:41:07;;;;;;;5.78;1.90;;;;;;;-0.09;100.00;94535.75;4992932;28;20058;-76
2021/12/11 04:43:33;;;;;;;3.30;1.77;;;;;;;-0.07;100.00;94533.72;4995981;28;20050;-76
2021/12/11 04:46:06;;;;;;;3.97;2.05;;;;;;;-0.02;100.00;94541.59;5009678;28;20042;-77
2021/12/11 05:02:18;;;;;;;4.82;1.63;;;;;;;-0.09;100.00;94561.63;4997851;28;20065;-76
2021/12/11 05:09:57;;;;;;;9.95;2.40;;;;;;;-0.16;100.00;94576.44;4990864;28;20097;-76
2021/12/11 05:14:50;;;;;;;3.38;2.00;;;;;;;-0.10;100.00;94580.72;5003990;28;20038;-76
2021/12/11 05:17:16;;;;;;;5.53;2.58;;;;;;;-0.18;100.00;94585.22;5020659;28;20046;-75
2021/12/11 05:19:44;;;;;;;5.95;1.92;;;;;;;-0.12;100.00;94593.09;5015262;28;20065;-76
2021/12/11 05:22:10;;;;;;;3.15;1.67;;;;;;;-0.12;100.00;94593.09;4991869;28;20052;-75
2021/12/11 05:24:38;;;;;;;2.90;1.98;;;;;;;-0.09;100.00;94603.75;5003878;28;20046;-73
2021/12/11 05:27:05;;;;;;;3.53;1.80;;;;;;;-0.08;100.00;94604.56;5008061;28;20042;-75
2021/12/11 05:29:31;;;;;;;6.22;2.20;;;;;;;-0.16;100.00;94607.47;5008214;28;20514;-75
2021/12/11 05:32:01;;;;;;;2.50;1.88;;;;;;;-0.20;100.00;94607.94;5007046;28;20034;-75
2021/12/11 05:34:27;;;;;;;3.85;1.67;;;;;;;-0.17;100.00;94611.88;4983234;28;20412;-75
2021/12/11 05:36:53;;;;;;;3.28;1.90;;;;;;;-0.11;100.00;94625.72;5004638;28;20049;-75
2021/12/11 05:39:21;;;;;;;3.35;1.95;;;;;;;-0.18;100.00;94621.41;5007440;28;20041;-75
2021/12/11 05:41:48;;;;;;;4.60;1.90;;;;;;;-0.14;100.00;94626.13;5000241;28;20038;-75
2021/12/11 05:44:15;;;;;;;6.68;2.20;;;;;;;-0.29;100.00;94629.94;5008925;28;20045;-77
2021/12/11 05:46:42;;;;;;;3.13;1.95;;;;;;;-0.20;100.00;94628.63;5007770;28;20171;-76
2021/12/11 05:49:10;;;;;;;3.75;1.98;;;;;;;-0.18;100.00;94631.75;5026495;28;20453;-77
2021/12/11 05:51:39;;;;;;;3.85;1.52;;;;;;;-0.21;100.00;94632.22;5009165;28;20052;-77
2021/12/11 05:54:08;;;;;;;4.40;2.20;;;;;;;-0.27;100.00;94627.94;5009049;28;20147;-77
2021/12/11 05:56:37;;;;;;;5.30;2.20;;;;;;;-0.25;100.00;94623.31;5008401;28;20116;-76
2021/12/11 05:59:05;;;;;;;7.22;2.35;;;;;;;-0.25;100.00;94631.06;4990581;28;20049;-77
2021/12/11 06:01:31;;;;;;;6.28;2.33;;;;;;;-0.21;100.00;94631.44;5021078;28;20063;-77
2021/12/11 06:04:00;;;;;;;7.45;2.50;;;;;;;-0.30;100.00;94638.72;5022772;28;20041;-77
2021/12/11 06:06:26;;;;;;;3.22;2.00;;;;;;;-0.25;100.00;94641.41;5008885;28;20133;-77
2021/12/11 06:08:52;;;;;;;3.20;1.85;;;;;;;-0.26;100.00;94639.88;4999735;28;20053;-76
2021/12/11 06:11:18;;;;;;;5.32;2.53;;;;;;;-0.21;100.00;94647.72;5026530;28;20120;-77
2021/12/11 06:13:44;;;;;;;5.20;2.25;;;;;;;-0.11;100.00;94651.56;4995023;28;20096;-77
2021/12/11 06:16:10;;;;;;;3.65;2.17;;;;;;;-0.12;100.00;94657.75;4992450;28;20117;-77
2021/12/11 06:18:36;;;;;;;4.30;2.40;;;;;;;-0.20;100.00;94659.66;4992301;28;20046;-76
2021/12/11 06:21:03;;;;;;;3.55;1.83;;;;;;;-0.07;100.00;94663.03;5008878;28;20052;-76
2021/12/11 06:23:28;;;;;;;7.53;2.20;;;;;;;-0.03;100.00;94669.34;4998116;28;20446;-76
2021/12/11 06:25:55;;;;;;;5.38;2.42;;;;;;;-0.07;100.00;94683.72;5011694;28;20046;-76
2021/12/11 06:28:23;;;;;;;3.55;1.95;;;;;;;0.00;100.00;94684.44;4991067;28;20045;-76
2021/12/11 06:30:49;;;;;;;4.22;2.10;;;;;;;-0.03;100.00;94687.44;5016148;28;20041;-76
2021/12/11 06:33:15;;;;;;;6.13;2.35;;;;;;;-0.06;100.00;94690.47;4993857;28;20556;-76
2021/12/11 06:35:46;;;;;;;4.65;2.20;;;;;;;-0.02;100.00;94701.97;5008177;28;20046;-77
2021/12/11 06:38:14;;;;;;;4.50;2.10;;;;;;;0.03;100.00;94707.28;5021480;28;20045;-77
2021/12/11 06:40:40;;;;;;;3.33;2.00;;;;;;;0.09;100.00;94708.97;5019240;28;20038;-77
2021/12/11 06:43:06;;;;;;;2.95;2.00;;;;;;;0.02;100.00;94708.28;5008695;28;20061;-76
2021/12/11 06:45:32;;;;;;;5.10;1.95;;;;;;;0.07;100.00;94720.53;5011188;28;20821;-76
2021/12/11 06:47:58;;;;;;;2.80;1.70;;;;;;;0.15;100.00;94718.41;4993022;28;20546;-76
2021/12/11 06:50:24;;;;;;;7.63;2.40;;;;;;;0.12;100.00;94729.22;5000001;28;20033;-76
2021/12/11 06:52:51;;;;;;;6.13;2.33;;;;;;;0.11;100.00;94732.78;5018390;28;20457;-77
2021/12/11 06:55:18;;;;;;;6.82;2.17;;;;;;;0.16;100.00;94739.91;5001270;28;20050;-76
2021/12/11 06:57:45;;;;;;;6.63;2.55;;;;;;;0.09;100.00;94740.00;4988984;28;20042;-77
2021/12/11 07:00:14;;;;;;;4.80;2.25;;;;;;;0.12;100.00;94744.72;5013571;28;20040;-77
2021/12/11 07:02:40;;;;;;;4.63;2.45;;;;;;;0.11;100.00;94748.31;5011940;28;20037;-76
2021/12/11 07:05:06;;;;;;;5.20;2.40;;;;;;;0.14;100.00;94760.84;5011016;28;20061;-77
2021/12/11 07:07:34;;;;;;;4.43;2.22;;;;;;;0.25;100.00;94758.50;5008040;28;20692;-77
2021/12/11 07:10:04;;;;;;;3.92;1.92;;;;;;;0.25;100.00;94774.03;4989916;28;20116;-77
2021/12/11 07:12:29;;;;;;;3.08;1.80;;;;;;;0.30;100.00;94771.53;5007498;28;20040;-77
2021/12/11 07:14:55;;;;;;;6.78;2.38;;;;;;;0.28;100.00;94773.56;5006067;28;20805;-77
2021/12/11 07:17:21;;;;;;;6.88;2.10;;;;;;;0.10;100.00;94780.41;5015611;28;20113;-77
2021/12/11 07:19:47;;;;;;;4.47;2.35;;;;;;;0.19;100.00;94785.22;4990844;28;20088;-77
2021/12/11 07:22:14;;;;;;;4.97;2.20;;;;;;;0.27;100.00;94792.69;5008892;28;20575;-76
2021/12/11 07:24:52;;;;;;;6.25;2.60;;;;;;;0.16;100.00;94792.44;5000952;28;20045;-78
2021/12/11 07:27:18;;;;;;;3.92;1.90;;;;;;;0.25;100.00;94802.47;5014199;28;20085;-77
2021/12/11 07:29:44;;;;;;;3.90;2.28;;;;;;;0.14;100.00;94815.19;5007844;28;20057;-77
2021/12/11 07:32:11;;;;;;;4.13;2.30;;;;;;;0.15;100.00;94821.91;4989823;28;20058;-77
2021/12/11 07:34:38;;;;;;;4.85;1.85;;;;;;;0.22;100.00;94826.22;5021499;28;20068;-78
2021/12/11 07:37:04;;;;;;;5.47;2.20;;;;;;;0.28;100.00;94827.91;5006158;28;20038;-77
2021/12/11 07:39:31;;;;;;;5.18;2.13;;;;;;;0.22;100.00;94841.75;5011278;28;20049;-77
2021/12/11 07:41:58;;;;;;;5.28;2.40;;;;;;;0.34;100.00;94834.78;5013886;28;20068;-77
2021/12/11 07:44:26;;;;;;;4.63;2.00;;;;;;;0.29;100.00;94838.03;5014875;28;20519;-77
2021/12/11 07:46:55;;;;;;;5.95;2.28;;;;;;;0.20;100.00;94854.09;4987835;28;20171;-78
2021/12/11 07:49:20;;;;;;;5.63;1.98;;;;;;;0.32;100.00;94853.13;4993255;28;20136;-77
2021/12/11 07:51:48;;;;;;;3.83;1.55;;;;;;;0.35;100.00;94854.50;5002145;28;20052;-77
2021/12/11 07:54:14;;;;;;;3.80;2.25;;;;;;;0.36;100.00;94858.66;5017578;28;20042;-77
2021/12/11 07:56:40;;;;;;;3.53;1.95;;;;;;;0.37;100.00;94865.41;5001606;28;20054;-77
2021/12/11 07:59:08;;;;;;;3.65;2.05;;;;;;;0.32;100.00;94865.28;5025594;28;20053;-77
2021/12/11 08:01:38;;;;;;;2.67;1.50;;;;;;;0.42;100.00;94867.34;5011235;28;20052;-77
2021/12/11 08:04:05;;;;;;;3.53;2.10;;;;;;;0.31;100.00;94877.44;4992857;28;20117;-77
2021/12/11 08:06:33;;;;;;;8.05;2.33;;;;;;;0.20;100.00;94896.28;4993093;28;20038;-77
2021/12/11 08:08:59;;;;;;;4.35;2.35;;;;;;;0.22;100.00;94896.09;5005345;28;20050;-77
2021/12/11 08:11:28;;;;;;;4.10;2.80;;;;;;;0.24;100.00;94917.34;5004121;28;20038;-77
2021/12/11 08:13:55;;;;;;;6.45;2.35;;;;;;;0.06;100.00;94931.91;5012538;28;20038;-77
2021/12/11 08:16:25;;;;;;;5.35;1.85;;;;;;;-0.16;100.00;94933.34;5009831;28;20041;-76
2021/12/11 08:18:53;;;;;;;4.75;1.92;;;;;;;-0.29;100.00;94940.22;5029465;28;20042;-76
2021/12/11 08:21:20;;;;;;;2.42;1.70;;;;;;;-0.44;100.00;94942.38;4992791;28;20041;-77
2021/12/11 08:23:49;;;;;;;3.17;1.70;;;;;;;-0.42;100.00;94954.06;5015814;28;20096;-77
2021/12/11 08:26:19;;;;;;;4.13;1.67;;;;;;;-0.48;100.00;94951.56;5000679;28;20034;-76
2021/12/11 08:28:47;;;;;;;2.30;1.60;;;;;;;-0.46;100.00;94959.88;5003461;28;20042;-76
2021/12/11 08:31:14;;;;;;;2.40;1.75;;;;;;;-0.45;100.00;94961.47;5019652;28;20041;-77
2021/12/11 08:33:40;;;;;;;4.47;2.30;;;;;;;-0.49;100.00;94971.44;5018425;28;20042;-76
2021/12/11 08:36:06;;;;;;;4.85;2.47;;;;;;;-0.39;100.00;94976.94;5007426;28;20049;-76
2021/12/11 08:38:32;;;;;;;5.50;2.53;;;;;;;-0.41;100.00;94972.97;5005742;28;20547;-77
2021/12/11 08:41:00;;;;;;;5.70;2.60;;;;;;;-0.47;100.00;94973.84;5008389;28;20061;-77
2021/12/11 08:43:28;;;;;;;5.25;2.97;;;;;;;-0.43;100.00;94980.13;5009661;28;20042;-75
2021/12/11 08:46:15;;;;;;;7.03;2.97;;;;;;;-0.35;100.00;94993.56;5008745;28;20038;-74
2021/12/11 08:48:47;;;;;;;8.07;2.92;;;;;;;-0.37;100.00;94994.81;5007364;28;20072;-74
2021/12/11 08:51:22;;;;;;;7.90;3.30;;;;;;;-0.33;100.00;95006.31;5008930;28;20523;-76
2021/12/11 08:53:50;;;;;;;6.65;3.30;;;;;;;-0.42;100.00;95012.75;4997437;28;20137;-76
2021/12/11 08:56:16;;;;;;;5.68;3.08;;;;;;;-0.40;100.00;95018.53;5006807;28;20677;-76
2021/12/11 08:58:44;;;;;;;6.22;3.30;;;;;;;-0.34;100.00;95025.41;5009769;28;20461;-76
2021/12/11 09:01:13;;;;;;;5.70;3.15;;;;;;;-0.31;100.00;95025.00;5002067;28;20038;-76
2021/12/11 09:03:48;;;;;;;6.18;3.70;;;;;;;-0.34;100.00;95033.16;5014395;28;20761;-76
2021/12/11 09:06:53;;;;;;;7.15;3.78;;;;;;;-0.41;100.00;95035.81;5014427;28;20105;-76
2021/12/11 09:09:33;;;;;;;6.85;3.00;;;;;;;-0.24;100.00;95041.25;4986713;28;20072;-76
2021/12/11 09:12:17;;;;;;;6.88;3.95;;;;;;;-0.32;100.00;95046.66;5006100;28;20045;-77
2021/12/11 09:14:53;;;;;;;5.47;3.60;;;;;;;-0.27;100.00;95044.25;5006090;28;20037;-76
2021/12/11 09:17:23;;;;;;;5.95;3.70;;;;;;;-0.20;100.00;95057.91;5012678;28;20046;-76
2021/12/11 09:19:51;;;;;;;5.50;3.50;;;;;;;-0.19;100.00;95064.69;5013360;28;20057;-76
2021/12/11 09:22:26;;;;;;;6.90;4.10;;;;;;;-0.27;100.00;95067.53;4992570;28;20523;-76
2021/12/11 09:25:06;;;;;;;5.65;3.50;;;;;;;-0.30;100.00;95078.28;5003715;28;20039;-76
2021/12/11 09:27:47;;;;;;;6.88;4.10;;;;;;;-0.20;100.00;95070.84;5007370;28;20088;-76
2021/12/11 09:30:18;;;;;;;7.78;4.35;;;;;;;-0.31;100.00;95081.88;5006175;28;20058;-76
2021/12/11 09:32:53;;;;;;;7.60;4.60;;;;;;;-0.13;100.00;95085.50;5003896;28;20065;-76
2021/12/11 09:35:34;;;;;;;7.35;4.47;;;;;;;-0.27;100.00;95092.59;5003758;28;20069;-76
2021/12/11 09:38:06;;;;;;;6.95;4.15;;;;;;;-0.22;100.00;95096.09;4984820;28;20034;-76
2021/12/11 09:40:31;;;;;;;7.95;4.90;;;;;;;-0.20;100.00;95098.50;5016469;28;20050;-77
2021/12/11 09:42:57;;;;;;;7.90;4.60;;;;;;;-0.21;100.00;95115.81;5026805;28;20099;-76
2021/12/11 09:45:27;;;;;;;8.70;4.75;;;;;;;-0.14;100.00;95102.84;4994938;28;20694;-76
2021/12/11 09:48:05;;;;;;;8.55;4.63;;;;;;;-0.15;100.00;95105.63;4989922;28;20042;-76
2021/12/11 09:50:45;;;;;;;7.70;4.75;;;;;;;-0.15;100.00;95115.97;4990807;28;20040;-76
2021/12/11 09:53:14;;;;;;;7.95;4.72;;;;;;;-0.14;100.00;95117.53;5009458;28;20487;-78
2021/12/11 09:55:41;;;;;;;8.45;5.05;;;;;;;-0.22;100.00;95111.63;4990063;28;20077;-76
2021/12/11 09:58:11;;;;;;;9.32;5.03;;;;;;;-0.04;100.00;95117.88;4990889;28;20045;-76
2021/12/11 10:01:03;;;;;;;11.30;5.43;;;;;;;-0.13;100.00;95124.31;5008666;28;20030;-77
2021/12/11 10:03:32;;;;;;;10.10;5.43;;;;;;;-0.13;100.00;95124.31;4997930;28;20088;-77
2021/12/11 10:06:12;;;;;;;8.40;5.28;;;;;;;-0.04;100.00;95120.47;5006174;28;20042;-76
2021/12/11 10:08:43;;;;;;;6.80;4.07;;;;;;;-0.04;100.00;95125.63;5015892;28;20404;-74
2021/12/11 10:11:11;;;;;;;6.10;4.25;;;;;;;0.06;100.00;95128.53;4995165;28;20050;-75
2021/12/11 10:13:53;;;;;;;8.18;4.75;;;;;;;-0.01;100.00;95127.78;5008703;28;20042;-74
2021/12/11 10:16:25;;;;;;;7.68;4.82;;;;;;;-0.10;100.00;95139.41;4989364;28;20042;-74
2021/12/11 10:18:53;;;;;;;5.72;3.70;;;;;;;-0.08;100.00;95137.41;5004281;28;20069;-74
2021/12/11 10:21:27;;;;;;;9.10;5.28;;;;;;;-0.10;100.00;95144.56;5014427;28;20042;-74
2021/12/11 10:23:54;;;;;;;;;;;;;;;-0.11;100.00;95150.75;5005967;28;20035;-73
2021/12/11 10:26:23;;;;;;;8.43;4.68;;;;;;;-0.04;100.00;95159.28;5004060;28;19933;-73
2021/12/11 10:28:54;;;;;;;7.00;4.53;;;;;;;0.00;100.00;95155.25;5007988;28;20095;-73
2021/12/11 10:31:34;;;;;;;8.25;4.53;;;;;;;0.02;100.00;95162.81;4994078;28;20069;-73
2021/12/11 10:34:04;;;;;;;9.35;4.40;;;;;;;0.00;100.00;95165.59;4986497;28;20048;-74
2021/12/11 10:36:33;;;;;;;8.02;4.82;;;;;;;-0.05;100.00;95168.03;5005792;28;20042;-74
2021/12/11 10:39:03;;;;;;;8.73;4.93;;;;;;;0.16;100.00;95180.59;4982714;28;20041;-75
2021/12/11 10:41:29;;;;;;;9.05;4.95;;;;;;;0.04;100.00;95182.28;4992245;28;20184;-74
2021/12/11 10:44:24;;;;;;;8.90;4.50;;;;;;;0.06;100.00;95190.63;4999756;28;20411;-74
2021/12/11 10:46:57;;;;;;;9.77;4.90;;;;;;;0.11;100.00;95193.38;5002906;28;20113;-75
2021/12/11 10:49:24;;;;;;;7.25;4.40;;;;;;;0.12;100.00;95194.94;5005113;28;20049;-76
2021/12/11 10:51:56;;;;;;;7.68;4.57;;;;;;;0.12;100.00;95200.13;4999805;28;20061;-75
2021/12/11 10:54:22;;;;;;;11.10;5.75;;;;;;;0.31;100.00;95207.94;4996631;28;20129;-75
2021/12/11 10:56:49;;;;;;;9.98;4.18;;;;;;;0.09;100.00;95200.56;5002993;28;20042;-75
2021/12/11 10:59:23;;;;;;;9.40;4.88;;;;;;;0.12;100.00;95209.69;5001494;28;20054;-74
2021/12/11 11:01:54;;;;;;;8.68;4.43;;;;;;;0.07;100.00;95218.09;5007606;28;20528;-74
2021/12/11 11:04:27;;;;;;;10.70;5.00;;;;;;;0.12;100.00;95220.03;5004872;28;20499;-74
2021/12/11 11:06:55;;;;;;;8.17;5.10;;;;;;;0.19;100.00;95225.16;5007704;28;20053;-74
2021/12/11 11:09:22;;;;;;;7.53;4.50;;;;;;;0.05;100.00;95235.59;5001024;28;20042;-74
2021/12/11 11:11:49;;;;;;;6.55;4.38;;;;;;;0.13;100.00;95232.78;4989293;28;20046;-74
2021/12/11 11:14:17;;;;;;;7.13;4.35;;;;;;;0.09;100.00;95247.13;5010662;28;20038;-75
2021/12/11 11:16:51;;;;;;;8.88;4.65;;;;;;;0.17;100.00;95249.47;5004888;28;20042;-73
2021/12/11 11:19:20;;;;;;;7.32;4.80;;;;;;;0.02;100.00;95248.97;5006675;28;20053;-74
2021/12/11 11:21:49;;;;;;;7.03;4.50;;;;;;;-0.07;100.00;95247.63;5003809;28;20041;-78
2021/12/11 11:24:16;;;;;;;9.10;4.97;;;;;;;0.04;100.00;95259.88;5008866;28;20042;-77
2021/12/11 11:26:45;;;;;;;8.73;4.88;;;;;;;0.03;100.00;95268.66;5012769;28;20042;-78
2021/12/11 11:29:15;;;;;;;7.72;4.45;;;;;;;0.04;100.00;95265.06;5004863;28;20556;-76
2021/12/11 11:31:43;;;;;;;8.07;4.35;;;;;;;0.11;100.00;95268.41;4990797;28;20559;-75
2021/12/11 11:34:13;;;;;;;8.82;5.20;;;;;;;0.00;100.00;95258.75;5011689;28;20050;-76
2021/12/11 11:36:39;;;;;;;7.97;3.97;;;;;;;0.10;100.00;95274.59;4992485;28;20061;-76
2021/12/11 11:39:10;;;;;;;8.40;5.03;;;;;;;0.01;100.00;95281.00;5011332;28;20695;-75
2021/12/11 11:41:40;;;;;;;5.45;3.58;;;;;;;0.03;100.00;95286.78;4995134;28;20443;-76
2021/12/11 11:44:07;;;;;;;9.13;5.15;;;;;;;0.01;100.00;95285.41;5012208;28;20461;-76
2021/12/11 11:46:34;;;;;;;10.70;4.90;;;;;;;-0.07;100.00;95295.00;5011781;28;20052;-74
2021/12/11 11:49:01;;;;;;;10.35;4.70;;;;;;;-0.02;100.00;95297.72;4996744;28;20049;-75
2021/12/11 11:51:32;;;;;;;8.55;4.63;;;;;;;0.05;100.00;95292.53;4995043;28;20077;-75
2021/12/11 11:53:59;;;;;;;6.53;4.15;;;;;;;0.01;100.00;95300.91;5010035;28;20046;-76
2021/12/11 11:56:29;;;;;;;10.60;5.82;;;;;;;0.14;100.00;95301.66;5007004;28;20148;-77
2021/12/11 11:58:55;;;;;;;9.07;4.97;;;;;;;0.19;100.00;95302.78;5010979;28;20458;-76
2021/12/11 12:01:26;;;;;;;8.38;4.43;;;;;;;0.10;100.00;95305.66;4993818;28;20042;-76
2021/12/11 12:03:52;;;;;;;6.85;4.28;;;;;;;0.20;100.00;95301.81;4991757;28;20043;-75
2021/12/11 12:06:24;;;;;;;8.07;4.63;;;;;;;0.17;100.00;95306.41;5010863;28;20053;-78
2021/12/11 12:08:54;;;;;;;7.10;4.43;;;;;;;0.23;100.00;95319.50;5000031;28;20049;-76
2021/12/11 12:11:22;;;;;;;7.00;4.07;;;;;;;0.23;100.00;95324.66;5007358;28;20062;-77